Aviation Digital Data Service (ADDS)

Output produced by TAFs form (2206 UTC 23 March 2017)
found at http://aviationweather.gov/adds/tafs/
 
KVEL 232103Z 2321/2418 26010KT P6SM VCSH BKN080 
     FM240000 35015G25KT P6SM -SHRA BKN025 OVC050 
     FM240400 05010G15KT P6SM VCSH BKN080 
     FM241200 VRB03KT P6SM BKN050 
     FM241500 19004KT P6SM FEW250